• Join FlightAware (Why Join?)
  • Login
  • US Flag 
01:37AM EDT


 

Airport Tracker/Info


-or-


 

Live Flight TrackerFlight Track Log ✈ CSN6179 ✈ 26-Jun-2014 ✈ ZYCC / CGQ - ZBAA / PEK

Flight Track Log - Related Links

Times and Time Zones

All times are in EDT time to prevent confusion due to time zone crossing. See the CSN6179 flight status page for this flight to view local times or setup timezone preferences in your user account.

Time Position Orientation Groundspeed Altitude Reporting Facility
EDT Latitude Longitude Course Direction KTS MPH feet Rate Location/Type
08:28AM 43.6396 124.5070 242° Southwest  Level Estimated
08:29AM 43.5947 124.3926 242° Southwest  Level Estimated
08:30AM 43.5497 124.2783 242° Southwest  Level Estimated
08:31AM 43.5046 124.1642 241° Southwest  Level Estimated
08:32AM 43.4593 124.0502 241° Southwest  Level Estimated
08:33AM 43.4140 123.9364 241° Southwest  Level Estimated
08:34AM 43.3736 123.8356 241° Southwest  Level Estimated
08:35AM 43.3332 123.7348 241° Southwest  Level Estimated
08:36AM 43.2926 123.6343 241° Southwest  Level Estimated
08:37AM 43.2520 123.5338 241° Southwest  Level Estimated
08:38AM 43.2113 123.4335 241° Southwest  Level Estimated
08:39AM 43.1705 123.3333 241° Southwest  Level Estimated
08:40AM 43.1297 123.2333 241° Southwest  Level Estimated
08:41AM 43.0887 123.1333 241° Southwest  Level Estimated
08:42AM 43.0476 123.0336 241° Southwest  Level Estimated
08:43AM 43.0065 122.9339 241° Southwest  Level Estimated
08:44AM 42.9653 122.8344 241° Southwest  Level Estimated
08:45AM 42.9240 122.7350 240° Southwest  Level Estimated
08:46AM 42.8826 122.6358 240° Southwest  Level Estimated
08:47AM 42.8411 122.5367 240° Southwest  Level Estimated
08:48AM 42.7995 122.4377 240° Southwest  Level Estimated
08:49AM 42.7579 122.3388 240° Southwest  Level Estimated
08:50AM 42.7161 122.2401 240° Southwest  Level Estimated
08:51AM 42.6743 122.1415 240° Southwest  Level Estimated
08:52AM 42.6324 122.0431 240° Southwest  Level Estimated
08:53AM 42.5904 121.9447 240° Southwest  Level Estimated
08:54AM 42.5483 121.8466 240° Southwest  Level Estimated
08:55AM 42.5062 121.7485 240° Southwest  Level Estimated
08:56AM 42.4639 121.6506 240° Southwest  Level Estimated
08:57AM 42.4216 121.5528 240° Southwest  Level Estimated
08:58AM 42.3792 121.4551 240° Southwest  Level Estimated
08:59AM 42.3367 121.3576 240° Southwest  Level Estimated
09:00AM 42.2942 121.2602 239° Southwest  Level Estimated
09:01AM 42.2515 121.1630 239° Southwest  Level Estimated
09:02AM 42.2088 121.0658 239° Southwest  Level Estimated
09:03AM 42.1659 120.9688 239° Southwest  Level Estimated
09:04AM 42.1230 120.8720 239° Southwest  Level Estimated
09:05AM 42.0801 120.7752 239° Southwest  Level Estimated
09:06AM 42.0370 120.6786 239° Southwest  Level Estimated
09:07AM 41.9938 120.5822 239° Southwest  Level Estimated
09:08AM 41.9506 120.4858 239° Southwest  Level Estimated
09:09AM 41.9073 120.3896 239° Southwest  Level Estimated
09:10AM 41.8639 120.2935 239° Southwest  Level Estimated
09:11AM 41.8205 120.1976 239° Southwest  Level Estimated
09:12AM 41.7769 120.1018 239° Southwest  Level Estimated
09:13AM 41.7333 120.0061 239° Southwest  Level Estimated
09:13AM 41.3715 118.3799 249° West 437 503 25,400  Level FlightAware ADS-B
09:13AM 41.3427 118.3090 240° Southwest 415 478 24,900 -900 Descending FlightAware ADS-B
09:14AM 41.3162 118.2498 240° Southwest 403 464 24,500 -900 Descending FlightAware ADS-B
09:14AM 41.2816 118.1720 240° Southwest 396 456 24,000 -960 Descending FlightAware ADS-B
09:15AM 41.2531 118.1077 240° Southwest 396 456 23,500 -1,080 Descending FlightAware ADS-B
09:15AM 41.2291 118.0537 240° Southwest 394 453 23,000 -1,020 Descending FlightAware ADS-B
09:16AM 41.1975 117.9827 240° Southwest 392 451 22,500 -900 Descending FlightAware ADS-B
09:16AM 41.1726 117.9271 240° Southwest 391 450 22,100 -900 Descending FlightAware ADS-B
09:17AM 41.1432 117.8614 240° Southwest 386 444 21,600 -1,020 Descending FlightAware ADS-B
09:18AM 41.1104 117.7884 240° Southwest 381 438 21,000 -960 Descending FlightAware ADS-B
09:18AM 41.0861 117.7342 240° Southwest 377 434 20,600 -1,380 Descending FlightAware ADS-B
09:18AM 41.0588 117.6734 240° Southwest 379 436 19,700 -3,060 Descending FlightAware ADS-B
09:19AM 41.0285 117.6063 240° Southwest 396 456 17,600 -3,540 Descending FlightAware ADS-B
09:20AM 41.0036 117.5513 240° Southwest 401 461 16,100 -3,000 Descending FlightAware ADS-B
09:20AM 40.9722 117.4822 240° Southwest 398 458 14,600 -2,880 Descending FlightAware ADS-B
09:21AM 40.9430 117.4185 239° Southwest 392 451 13,200 -2,400 Descending FlightAware ADS-B
09:21AM 40.9210 117.3703 239° Southwest 380 437 12,400 -1,440 Descending FlightAware ADS-B
09:22AM 40.8884 117.2988 240° Southwest 381 438 11,800 -600 Descending FlightAware ADS-B
09:22AM 40.8657 117.2490 239° Southwest 380 437 11,800  Level FlightAware ADS-B
09:23AM 40.8341 117.1800 239° Southwest 378 435 11,800  Level FlightAware ADS-B
09:23AM 40.8070 117.1209 239° Southwest 375 432 11,800  Level FlightAware ADS-B
09:24AM 40.7794 117.0607 239° Southwest 380 437 11,800  Level FlightAware ADS-B
09:24AM 40.7600 117.0186 239° Southwest 379 436 11,800  Level FlightAware ADS-B
09:25AM 40.7180 116.9691 239° Southwest 379 436 11,800  Level FlightAware ADS-B
09:25AM 40.7008 116.9586 205° Southwest 388 447 11,800  Level FlightAware ADS-B
09:26AM 40.5441 116.8702 204° Southwest 384 442 11,800  Level FlightAware ADS-B
09:27AM 40.4961 116.8430 204° Southwest 382 440 11,800 -420 Level FlightAware ADS-B
09:27AM 40.4497 116.8167 204° Southwest 361 415 11,400 -900 Descending FlightAware ADS-B
09:28AM 40.4020 116.7897 204° Southwest 341 392 10,900 -840 Descending FlightAware ADS-B
09:28AM 40.3631 116.7678 204° Southwest 318 366 10,600 -1,020 Descending FlightAware ADS-B
09:29AM 40.3194 116.7498 185° South 311 358 9,900 -1,440 Descending FlightAware ADS-B
09:29AM 40.3042 116.7496 178° South 311 358 9,600 -1,440 Descending FlightAware ADS-B
09:29AM 40.2769 116.7509 177° South 307 353 9,200 -660 Descending FlightAware ADS-B
09:30AM 40.2487 116.7527 177° South 306 352 9,200  Level FlightAware ADS-B
09:30AM 40.2199 116.7546 177° South 308 354 9,200  Level FlightAware ADS-B
09:30AM 40.1935 116.7561 177° South 305 351 9,200 -180 Level FlightAware ADS-B
09:31AM 40.1638 116.7578 177° South 301 346 9,100 -840 Descending FlightAware ADS-B
09:31AM 40.1431 116.7590 177° South 300 345 8,700 -1,560 Descending FlightAware ADS-B
09:31AM 40.1212 116.7601 177° South 298 343 8,300 -1,680 Descending FlightAware ADS-B
09:31AM 40.1006 116.7613 177° South 297 342 7,900 -1,620 Descending FlightAware ADS-B
09:32AM 40.0821 116.7623 177° South 297 342 7,500 -1,800 Descending FlightAware ADS-B
09:32AM 40.0591 116.7633 178° South 295 339 7,000 -2,040 Descending FlightAware ADS-B
09:32AM 40.0389 116.7642 178° South 292 336 6,500 -2,280 Descending FlightAware ADS-B
09:32AM 40.0198 116.7650 178° South 291 335 5,900 -2,400 Descending FlightAware ADS-B
09:33AM 39.9988 116.7661 177° South 290 334 5,300 -1,800 Descending FlightAware ADS-B
09:33AM 39.9790 116.7670 177° South 277 319 5,000 -1,080 Descending FlightAware ADS-B
09:33AM 39.9598 116.7680 177° South 263 303 4,800 -840 Descending FlightAware ADS-B
09:33AM 39.9418 116.7690 177° South 257 296 4,600 -1,020 Descending FlightAware ADS-B
09:34AM 39.9273 116.7698 177° South 257 296 4,300 -1,440 Descending FlightAware ADS-B
09:34AM 39.9091 116.7708 177° South 260 299 3,900 -1,500 Descending FlightAware ADS-B
09:34AM 39.8910 116.7718 177° South 260 299 3,600 -1,200 Descending FlightAware ADS-B
09:34AM 39.8720 116.7727 177° South 254 292 3,300 -540 Descending FlightAware ADS-B
09:35AM 39.8481 116.7739 177° South 241 277 3,300  Level FlightAware ADS-B
09:35AM 39.8263 116.7764 173° South 221 254 3,300  Level FlightAware ADS-B
09:35AM 39.8058 116.7796 173° South 215 247 3,300  Level FlightAware ADS-B
09:36AM 39.7863 116.7825 173° South 215 247 3,300  Level FlightAware ADS-B
09:36AM 39.7665 116.7855 173° South 214 246 3,300  Level FlightAware ADS-B
09:36AM 39.7467 116.7886 172° South 212 244 3,300  Level FlightAware ADS-B
09:37AM 39.7322 116.7893 189° South 213 245 3,300  Level FlightAware ADS-B
09:37AM 39.7276 116.7877 200° South 211 243 3,300  Level FlightAware ADS-B
09:37AM 39.7231 116.7848 212° Southwest 210 242 3,300  Level FlightAware ADS-B
09:37AM 39.7194 116.7809 224° Southwest 208 239 3,300  Level FlightAware ADS-B
09:37AM 39.7164 116.7763 236° Southwest 206 237 3,300  Level FlightAware ADS-B
09:37AM 39.7140 116.7708 243° Southwest 204 235 3,300  Level FlightAware ADS-B
09:37AM 39.7126 116.7650 256° West 201 231 3,300  Level FlightAware ADS-B
09:37AM 39.7093 116.7415 262° West 192 221 3,300  Level FlightAware ADS-B
09:38AM 39.7078 116.7261 267° West 189 217 3,300  Level FlightAware ADS-B
09:38AM 39.7082 116.7195 277° West 188 216 3,300  Level FlightAware ADS-B
09:38AM 39.7121 116.7090 308° West 186 214 3,300  Level FlightAware ADS-B
09:38AM 39.7142 116.7058 316° Northwest 185 213 3,300  Level FlightAware ADS-B
09:38AM 39.7176 116.7020 321° Northwest 186 214 3,300  Level FlightAware ADS-B
09:38AM 39.7286 116.6911 325° Northwest 186 214 3,300  Level FlightAware ADS-B
09:39AM 39.7427 116.6781 325° Northwest 184 212 3,300  Level FlightAware ADS-B
09:39AM 39.7531 116.6692 328° Northwest 183 211 3,300  Level FlightAware ADS-B
09:39AM 39.7561 116.6674 340° North 184 212 3,300  Level FlightAware ADS-B
09:39AM 39.7610 116.6653 346° North 184 212 3,300  Level FlightAware ADS-B
09:39AM 39.7824 116.6607 352° North 183 211 3,300  Level FlightAware ADS-B
09:40AM 39.7991 116.6581 354° North 184 212 3,300  Level FlightAware ADS-B
09:40AM 39.8157 116.6556 354° North 183 211 3,300  Level FlightAware ADS-B
09:40AM 39.8303 116.6533 354° North 184 212 3,300  Level FlightAware ADS-B
09:41AM 39.8503 116.6501 353° North 180 207 3,300  Level FlightAware ADS-B
09:41AM 39.8668 116.6476 354° North 179 206 3,300  Level FlightAware ADS-B
09:41AM 39.8833 116.6451 354° North 180 207 3,300  Level FlightAware ADS-B
09:42AM 39.8994 116.6425 353° North 169 194 3,300 -360 Level FlightAware ADS-B
09:42AM 39.9100 116.6408 354° North 163 188 3,100 -840 Descending FlightAware ADS-B
09:42AM 39.9219 116.6390 354° North 159 183 2,900 -840 Descending FlightAware ADS-B
09:43AM 39.9326 116.6374 354° North 150 173 2,700 -840 Descending FlightAware ADS-B
09:45AM 40.0801 116.5846 345° North  Level Estimated
09:46AM 40.0801 116.5846 North  Level Estimated
09:47AM 40.0801 116.5846 North  Level Estimated
09:48AM 40.0801 116.5846 North  Level Estimated
09:49AM 40.0801 116.5846 North  Level Estimated
09:50AM 40.0801 116.5846 North  Level Estimated
09:51AM 40.0801 116.5846 North  Level Estimated